Time;durP1;ratioP1;P1;durP2;ratioP2;P2;SDS_P1;SDS_P2;PMS_P1;PMS_P2;Temp;Humidity;BMP_temperature;BMP_pressure;BME280_temperature;BME280_humidity;BME280_pressure;Samples;Min_cycle;Max_cycle;Signal;HPM_P1;HPM_P2
2023/06/13 00:00:13;;;;;;;;;;;20.30;69.00;;;;;;5090386;28;19913;-77
2023/06/13 00:02:39;;;;;;;;;;;20.20;69.00;;;;;;5088144;28;19932;-77
2023/06/13 00:05:10;;;;;;;;;;;20.20;69.00;;;;;;5089315;28;19938;-77
2023/06/13 00:07:37;;;;;;;;;;;20.30;69.10;;;;;;5089227;28;19915;-77
2023/06/13 00:10:06;;;;;;;;;;;20.30;69.60;;;;;;5089640;28;19912;-77
2023/06/13 00:12:32;;;;;;;;;;;20.20;69.10;;;;;;5088396;28;19942;-77
2023/06/13 00:15:01;;;;;;;;;;;20.10;69.20;;;;;;5089597;28;19952;-77
2023/06/13 00:17:27;;;;;;;;;;;20.10;69.30;;;;;;5089787;28;19958;-76
2023/06/13 00:19:54;;;;;;;;;;;20.10;69.30;;;;;;5089481;28;19908;-77
2023/06/13 00:22:20;;;;;;;;;;;20.10;69.20;;;;;;5089809;28;19945;-77
2023/06/13 00:24:46;;;;;;;;;;;20.10;69.10;;;;;;5089352;28;20447;-76
2023/06/13 00:27:12;;;;;;;;;;;20.10;69.10;;;;;;5089367;28;19999;-77
2023/06/13 00:29:37;;;;;;;;;;;20.20;69.10;;;;;;5089401;28;19999;-76
2023/06/13 00:32:03;;;;;;;;;;;20.20;69.10;;;;;;5089081;28;19912;-77
2023/06/13 00:34:29;;;;;;;;;;;20.20;69.00;;;;;;5089217;28;20261;-76
2023/06/13 00:36:55;;;;;;;;;;;20.20;69.00;;;;;;5089164;28;19930;-76
2023/06/13 00:39:21;;;;;;;;;;;20.30;69.10;;;;;;5087698;28;20291;-76
2023/06/13 00:41:46;;;;;;;;;;;20.30;69.10;;;;;;5089050;28;19916;-76
2023/06/13 00:44:12;;;;;;;;;;;20.30;69.10;;;;;;5089301;28;20368;-76
2023/06/13 00:46:39;;;;;;;;;;;20.30;69.00;;;;;;5089178;28;19965;-76
2023/06/13 00:49:05;;;;;;;;;;;20.20;69.00;;;;;;5088977;28;19912;-76
2023/06/13 00:51:32;;;;;;;;;;;20.20;68.90;;;;;;5088684;28;19920;-76
2023/06/13 00:53:58;;;;;;;;;;;20.20;69.00;;;;;;5088794;28;19912;-76
2023/06/13 00:56:24;;;;;;;;;;;20.20;69.00;;;;;;5088743;28;19918;-76
2023/06/13 00:58:50;;;;;;;;;;;20.10;69.00;;;;;;5088812;28;19908;-76
2023/06/13 01:01:19;;;;;;;;;;;20.20;69.00;;;;;;5088536;28;19919;-75
2023/06/13 01:03:45;;;;;;;;;;;20.10;69.00;;;;;;5088692;28;20277;-77
2023/06/13 01:06:14;;;;;;;;;;;20.10;69.00;;;;;;5088563;28;19915;-77
2023/06/13 01:08:40;;;;;;;;;;;20.10;69.00;;;;;;5088675;28;19912;-76
2023/06/13 01:11:16;;;;;;;;;;;20.10;69.00;;;;;;5087160;28;19916;-76
2023/06/13 01:14:00;;;;;;;;;;;20.10;69.00;;;;;;5088546;28;19999;-76
2023/06/13 01:16:40;;;;;;;;;;;20.10;69.00;;;;;;5088314;28;19915;-76
2023/06/13 01:19:11;;;;;;;;;;;20.00;69.00;;;;;;5087028;28;19908;-76
2023/06/13 01:21:38;;;;;;;;;;;20.10;69.00;;;;;;5087024;28;20371;-76
2023/06/13 01:24:12;;;;;;;;;;;20.00;69.00;;;;;;5088431;28;19908;-76
2023/06/13 01:26:40;;;;;;;;;;;20.00;69.00;;;;;;5088384;28;19932;-76
2023/06/13 01:29:06;;;;;;;;;;;20.00;69.00;;;;;;5088296;28;19999;-77
2023/06/13 01:31:32;;;;;;;;;;;20.00;69.00;;;;;;5088054;28;20010;-76
2023/06/13 01:33:58;;;;;;;;;;;20.00;69.10;;;;;;5088284;28;20278;-76
2023/06/13 01:36:24;;;;;;;;;;;19.90;69.00;;;;;;5088169;28;19912;-76
2023/06/13 01:38:50;;;;;;;;;;;20.00;69.10;;;;;;5088148;28;19912;-76
2023/06/13 01:41:16;;;;;;;;;;;19.90;69.10;;;;;;5088136;28;19958;-76
2023/06/13 01:43:41;;;;;;;;;;;19.90;69.10;;;;;;5088114;28;20477;-76
2023/06/13 01:46:15;;;;;;;;;;;19.90;69.10;;;;;;5087904;28;19977;-77
2023/06/13 01:48:54;;;;;;;;;;;19.90;69.10;;;;;;5088357;28;19908;-76
2023/06/13 01:51:24;;;;;;;;;;;20.00;69.20;;;;;;5087908;28;19920;-76
2023/06/13 01:53:55;;;;;;;;;;;20.00;69.20;;;;;;5088018;28;19953;-76
2023/06/13 01:56:22;;;;;;;;;;;20.00;69.60;;;;;;5087927;28;19954;-76
2023/06/13 01:58:52;;;;;;;;;;;20.00;69.20;;;;;;5087841;28;19958;-76
2023/06/13 02:01:19;;;;;;;;;;;19.90;69.20;;;;;;5087621;28;19915;-76
2023/06/13 02:03:45;;;;;;;;;;;19.90;69.30;;;;;;5087865;28;19920;-77
2023/06/13 02:06:11;;;;;;;;;;;19.90;69.40;;;;;;5087839;28;19916;-77
2023/06/13 02:08:36;;;;;;;;;;;19.90;69.30;;;;;;5087860;28;19918;-76
2023/06/13 02:11:02;;;;;;;;;;;19.90;69.30;;;;;;5087768;28;19918;-76
2023/06/13 02:13:27;;;;;;;;;;;19.90;69.30;;;;;;5087750;28;20296;-76
2023/06/13 02:15:53;;;;;;;;;;;19.90;69.20;;;;;;5086566;28;20003;-76
2023/06/13 02:18:19;;;;;;;;;;;19.90;69.20;;;;;;5087637;28;19928;-76
2023/06/13 02:20:44;;;;;;;;;;;19.90;69.30;;;;;;5086324;28;19966;-77
2023/06/13 02:23:10;;;;;;;;;;;19.90;69.20;;;;;;5087702;28;20018;-76
2023/06/13 02:25:36;;;;;;;;;;;19.90;69.20;;;;;;5087687;28;19912;-76
2023/06/13 02:28:01;;;;;;;;;;;19.90;69.20;;;;;;5087728;28;20010;-77
2023/06/13 02:30:27;;;;;;;;;;;19.90;69.20;;;;;;5090657;28;19916;-77
2023/06/13 02:32:53;;;;;;;;;;;19.90;69.20;;;;;;5090351;28;20414;-77
2023/06/13 02:35:22;;;;;;;;;;;19.80;69.10;;;;;;5091500;28;19969;-77
2023/06/13 02:37:54;;;;;;;;;;;19.80;69.20;;;;;;5091441;28;19908;-77
2023/06/13 02:40:20;;;;;;;;;;;19.70;69.20;;;;;;5091407;28;19918;-77
2023/06/13 02:42:50;;;;;;;;;;;19.70;69.50;;;;;;5091272;28;20454;-76
2023/06/13 02:45:16;;;;;;;;;;;19.60;69.60;;;;;;5091526;28;20365;-76
2023/06/13 02:47:42;;;;;;;;;;;19.50;69.70;;;;;;5091217;28;19915;-76
2023/06/13 02:50:08;;;;;;;;;;;19.40;69.80;;;;;;5091277;28;19912;-76
2023/06/13 02:52:33;;;;;;;;;;;19.40;69.80;;;;;;5091144;28;19908;-77
2023/06/13 02:54:59;;;;;;;;;;;19.40;69.70;;;;;;5090909;28;19917;-77
2023/06/13 02:57:25;;;;;;;;;;;19.50;69.70;;;;;;5091147;28;20321;-76
2023/06/13 02:59:50;;;;;;;;;;;19.50;69.60;;;;;;5090891;28;19920;-77
2023/06/13 03:02:16;;;;;;;;;;;19.40;69.60;;;;;;5090832;28;19931;-77
2023/06/13 03:04:42;;;;;;;;;;;19.40;69.70;;;;;;5089814;28;19912;-77
2023/06/13 03:07:10;;;;;;;;;;;19.40;69.80;;;;;;5090955;28;19912;-77
2023/06/13 03:09:35;;;;;;;;;;;19.40;69.80;;;;;;5090941;28;19943;-77
2023/06/13 03:12:02;;;;;;;;;;;19.50;69.80;;;;;;5089328;28;19985;-77
2023/06/13 03:14:28;;;;;;;;;;;19.40;69.80;;;;;;5090834;28;20273;-77
2023/06/13 03:16:55;;;;;;;;;;;19.50;69.80;;;;;;5089538;28;19923;-76
2023/06/13 03:19:21;;;;;;;;;;;19.50;69.70;;;;;;5089435;28;19961;-77
2023/06/13 03:21:47;;;;;;;;;;;19.50;69.70;;;;;;5090563;28;20007;-76
2023/06/13 03:24:14;;;;;;;;;;;19.50;69.70;;;;;;5089347;28;19912;-76
2023/06/13 03:26:39;;;;;;;;;;;19.40;69.80;;;;;;5090536;28;19912;-76
2023/06/13 03:29:05;;;;;;;;;;;19.40;69.90;;;;;;5090524;28;20288;-77
2023/06/13 03:31:31;;;;;;;;;;;19.40;69.90;;;;;;5090312;28;19998;-77
2023/06/13 03:33:56;;;;;;;;;;;19.40;69.90;;;;;;5090487;28;20288;-77
2023/06/13 03:36:22;;;;;;;;;;;19.50;69.90;;;;;;5090406;28;19916;-77
2023/06/13 03:38:48;;;;;;;;;;;19.50;69.80;;;;;;5090365;28;19912;-77
2023/06/13 03:41:13;;;;;;;;;;;19.50;69.70;;;;;;5089962;28;19912;-77
2023/06/13 03:43:40;;;;;;;;;;;19.60;69.80;;;;;;5090259;28;19955;-77
2023/06/13 03:46:05;;;;;;;;;;;19.60;69.80;;;;;;5090322;28;19994;-77
2023/06/13 03:48:31;;;;;;;;;;;19.60;69.80;;;;;;5090146;28;20002;-77
2023/06/13 03:50:57;;;;;;;;;;;19.50;69.60;;;;;;5089866;28;19964;-77
2023/06/13 03:53:22;;;;;;;;;;;19.50;69.60;;;;;;5090094;28;19912;-77
2023/06/13 03:55:48;;;;;;;;;;;19.50;69.60;;;;;;5089801;28;19935;-77
2023/06/13 03:58:15;;;;;;;;;;;19.50;69.60;;;;;;5089812;28;20007;-77
2023/06/13 04:00:41;;;;;;;;;;;19.50;69.60;;;;;;5089349;28;19915;-77
2023/06/13 04:03:08;;;;;;;;;;;19.50;69.70;;;;;;5089600;28;19928;-76
2023/06/13 04:05:33;;;;;;;;;;;19.50;69.70;;;;;;5089651;28;19964;-77
2023/06/13 04:07:59;;;;;;;;;;;19.50;70.00;;;;;;5089816;28;20364;-77
2023/06/13 04:10:25;;;;;;;;;;;19.40;69.80;;;;;;5089860;28;19919;-77
2023/06/13 04:12:50;;;;;;;;;;;19.40;69.90;;;;;;5089638;28;19916;-76
2023/06/13 04:15:16;;;;;;;;;;;19.40;70.00;;;;;;5088424;28;19912;-76
2023/06/13 04:17:41;;;;;;;;;;;19.30;70.00;;;;;;5088343;28;19919;-76
2023/06/13 04:20:09;;;;;;;;;;;19.30;70.10;;;;;;5088218;28;20391;-77
2023/06/13 04:22:35;;;;;;;;;;;19.30;70.20;;;;;;5089349;28;19918;-76
2023/06/13 04:25:01;;;;;;;;;;;19.20;70.20;;;;;;5089548;28;19958;-76
2023/06/13 04:27:29;;;;;;;;;;;19.20;70.20;;;;;;5089469;28;19920;-76
2023/06/13 04:29:56;;;;;;;;;;;19.10;70.20;;;;;;5089340;28;19916;-76
2023/06/13 04:32:23;;;;;;;;;;;19.20;70.30;;;;;;5089369;28;19912;-76
2023/06/13 04:34:53;;;;;;;;;;;19.20;70.30;;;;;;5071515;28;20360;-76
2023/06/13 04:37:25;;;;;;;;;;;19.20;70.20;;;;;;5089105;28;19918;-76
2023/06/13 04:39:54;;;;;;;;;;;19.20;70.30;;;;;;5089144;28;19912;-76
2023/06/13 04:42:24;;;;;;;;;;;19.10;70.30;;;;;;5087731;28;19908;-77
2023/06/13 04:44:56;;;;;;;;;;;19.10;70.30;;;;;;5089095;28;19912;-76
2023/06/13 04:47:29;;;;;;;;;;;19.10;70.30;;;;;;5087680;28;20387;-77
2023/06/13 04:49:58;;;;;;;;;;;19.20;70.30;;;;;;5088880;28;19912;-76
2023/06/13 04:52:29;;;;;;;;;;;19.20;70.40;;;;;;5088104;28;19916;-77
2023/06/13 04:54:55;;;;;;;;;;;19.30;70.30;;;;;;5088892;28;19961;-77
2023/06/13 04:57:21;;;;;;;;;;;19.30;70.10;;;;;;5088844;28;20368;-76
2023/06/13 04:59:47;;;;;;;;;;;19.30;70.00;;;;;;5088639;28;19911;-76
2023/06/13 05:02:12;;;;;;;;;;;19.30;69.90;;;;;;5088365;28;20464;-76
2023/06/13 05:04:38;;;;;;;;;;;19.40;70.00;;;;;;5088743;28;20280;-76
2023/06/13 05:07:06;;;;;;;;;;;19.20;69.90;;;;;;5088684;28;19922;-77
2023/06/13 05:09:31;;;;;;;;;;;19.20;70.60;;;;;;5087693;28;20296;-77
2023/06/13 05:11:57;;;;;;;;;;;19.10;70.20;;;;;;5087256;28;19925;-76
2023/06/13 05:14:23;;;;;;;;;;;19.10;70.30;;;;;;5087110;28;20326;-76
2023/06/13 05:16:48;;;;;;;;;;;19.10;70.90;;;;;;5088439;28;19912;-76
2023/06/13 05:19:14;;;;;;;;;;;19.20;70.40;;;;;;5087110;28;19912;-77
2023/06/13 05:21:39;;;;;;;;;;;19.20;70.30;;;;;;5086982;28;19912;-77
2023/06/13 05:24:07;;;;;;;;;;;19.20;70.20;;;;;;5088470;28;20296;-76
2023/06/13 05:26:33;;;;;;;;;;;19.20;70.20;;;;;;5088263;28;19916;-77
2023/06/13 05:28:58;;;;;;;;;;;19.20;70.30;;;;;;5086903;28;19946;-77
2023/06/13 05:31:24;;;;;;;;;;;19.20;70.40;;;;;;5087729;28;19920;-75
2023/06/13 05:33:50;;;;;;;;;;;19.10;70.40;;;;;;5088021;28;19919;-77
2023/06/13 05:36:15;;;;;;;;;;;19.10;70.40;;;;;;5088089;28;19965;-77
2023/06/13 05:38:41;;;;;;;;;;;19.10;70.50;;;;;;5088099;28;19912;-77
2023/06/13 05:41:06;;;;;;;;;;;19.20;70.60;;;;;;5088147;28;19924;-76
2023/06/13 05:43:32;;;;;;;;;;;19.20;70.40;;;;;;5088009;28;19912;-76
2023/06/13 05:45:58;;;;;;;;;;;19.20;70.30;;;;;;5088044;28;19912;-76
2023/06/13 05:48:23;;;;;;;;;;;19.20;70.20;;;;;;5087902;28;20003;-76
2023/06/13 05:50:49;;;;;;;;;;;19.20;70.20;;;;;;5086420;28;20011;-76
2023/06/13 05:53:15;;;;;;;;;;;19.20;70.20;;;;;;5087757;28;19916;-76
2023/06/13 05:55:40;;;;;;;;;;;19.30;70.20;;;;;;5087950;28;19918;-76
2023/06/13 05:58:06;;;;;;;;;;;19.30;70.30;;;;;;5087718;28;19916;-76
2023/06/13 06:00:32;;;;;;;;;;;19.30;70.50;;;;;;5086349;28;19926;-76
2023/06/13 06:02:58;;;;;;;;;;;19.30;70.60;;;;;;5087643;28;20372;-77
2023/06/13 06:05:24;;;;;;;;;;;19.50;70.50;;;;;;5092022;28;19917;-76
2023/06/13 06:07:49;;;;;;;;;;;19.70;70.50;;;;;;5092497;28;19920;-76
2023/06/13 06:10:15;;;;;;;;;;;19.80;70.30;;;;;;5091617;28;19916;-76
2023/06/13 06:12:40;;;;;;;;;;;19.90;70.20;;;;;;5090395;28;19965;-75
2023/06/13 06:15:06;;;;;;;;;;;20.00;70.20;;;;;;5091714;28;19943;-76
2023/06/13 06:17:32;;;;;;;;;;;20.10;70.20;;;;;;5091855;28;19909;-75
2023/06/13 06:19:58;;;;;;;;;;;20.20;70.20;;;;;;5090469;28;19916;-76
2023/06/13 06:22:23;;;;;;;;;;;20.30;70.10;;;;;;5091641;28;19923;-75
2023/06/13 06:24:49;;;;;;;;;;;20.30;70.10;;;;;;5091539;28;19908;-76
2023/06/13 06:27:14;;;;;;;;;;;20.40;70.20;;;;;;5091695;28;20000;-76
2023/06/13 06:29:42;;;;;;;;;;;20.40;70.10;;;;;;5091298;28;19924;-75
2023/06/13 06:32:08;;;;;;;;;;;20.50;70.20;;;;;;5091322;28;19970;-76
2023/06/13 06:34:33;;;;;;;;;;;20.60;70.20;;;;;;5091531;28;19916;-75
2023/06/13 06:37:00;;;;;;;;;;;20.60;70.20;;;;;;5091239;28;19912;-76
2023/06/13 06:39:25;;;;;;;;;;;20.60;70.30;;;;;;5089728;28;19913;-75
2023/06/13 06:41:51;;;;;;;;;;;20.60;70.40;;;;;;5091537;28;19954;-75
2023/06/13 06:44:16;;;;;;;;;;;20.60;70.50;;;;;;5092053;28;19908;-76
2023/06/13 06:46:42;;;;;;;;;;;20.60;70.60;;;;;;5091209;28;20395;-75
2023/06/13 06:49:08;;;;;;;;;;;20.70;70.60;;;;;;5091158;28;19912;-75
2023/06/13 06:51:33;;;;;;;;;;;20.60;70.60;;;;;;5090960;28;19912;-76
2023/06/13 06:53:59;;;;;;;;;;;20.60;70.80;;;;;;5090931;28;20333;-76
2023/06/13 06:56:25;;;;;;;;;;;20.70;70.90;;;;;;5090787;28;20372;-76
2023/06/13 06:58:51;;;;;;;;;;;20.70;70.90;;;;;;5090808;28;19946;-76
2023/06/13 07:01:18;;;;;;;;;;;20.70;70.90;;;;;;5090219;28;20369;-75
2023/06/13 07:03:46;;;;;;;;;;;20.70;71.00;;;;;;5090645;28;19940;-76
2023/06/13 07:06:12;;;;;;;;;;;20.70;71.10;;;;;;5090617;28;19913;-74
2023/06/13 07:08:38;;;;;;;;;;;20.80;71.10;;;;;;5090595;28;19921;-75
2023/06/13 07:11:04;;;;;;;;;;;20.90;71.10;;;;;;5090587;28;20463;-74
2023/06/13 07:13:30;;;;;;;;;;;21.00;71.00;;;;;;5090494;28;20212;-74
2023/06/13 07:15:55;;;;;;;;;;;21.20;70.90;;;;;;5089818;28;20371;-74
2023/06/13 07:18:21;;;;;;;;;;;21.40;70.90;;;;;;5090431;28;20291;-75
2023/06/13 07:20:46;;;;;;;;;;;21.50;70.70;;;;;;5090419;28;19912;-75
2023/06/13 07:23:12;;;;;;;;;;;21.70;70.80;;;;;;5090472;28;20375;-75
2023/06/13 07:25:40;;;;;;;;;;;21.80;70.70;;;;;;5090529;28;19908;-75
2023/06/13 07:28:07;;;;;;;;;;;21.90;70.70;;;;;;5090306;28;19913;-75
2023/06/13 07:30:32;;;;;;;;;;;22.00;70.60;;;;;;5090173;28;19912;-75
2023/06/13 07:32:58;;;;;;;;;;;22.10;70.70;;;;;;5089899;28;19954;-75
2023/06/13 07:35:23;;;;;;;;;;;22.10;70.70;;;;;;5090084;28;19938;-75
2023/06/13 07:37:55;;;;;;;;;;;22.20;70.80;;;;;;5089944;28;20401;-75
2023/06/13 07:40:21;;;;;;;;;;;22.40;70.90;;;;;;5090042;28;19908;-75
2023/06/13 07:42:48;;;;;;;;;;;22.50;70.80;;;;;;5089094;28;19916;-75
2023/06/13 07:45:14;;;;;;;;;;;22.50;70.70;;;;;;5089815;28;20325;-75
2023/06/13 07:47:39;;;;;;;;;;;22.50;70.90;;;;;;5071760;28;19966;-75
2023/06/13 07:50:05;;;;;;;;;;;22.70;71.10;;;;;;5089683;28;19921;-75
2023/06/13 07:52:32;;;;;;;;;;;23.00;71.00;;;;;;5089488;28;20376;-75
2023/06/13 07:54:57;;;;;;;;;;;23.30;70.90;;;;;;5089334;28;19923;-74
2023/06/13 07:57:23;;;;;;;;;;;23.70;70.80;;;;;;5087861;28;19916;-75
2023/06/13 07:59:48;;;;;;;;;;;24.10;70.60;;;;;;5089355;28;19913;-75
2023/06/13 08:02:14;;;;;;;;;;;24.50;70.50;;;;;;5088901;28;19928;-75
2023/06/13 08:04:40;;;;;;;;;;;24.80;70.60;;;;;;5089335;28;19920;-75
2023/06/13 08:07:05;;;;;;;;;;;25.10;70.50;;;;;;5089104;28;19908;-75
2023/06/13 08:09:31;;;;;;;;;;;25.30;70.40;;;;;;5089282;28;19922;-75
2023/06/13 08:11:57;;;;;;;;;;;25.30;70.20;;;;;;5089034;28;19923;-75
2023/06/13 08:14:23;;;;;;;;;;;25.00;70.30;;;;;;5089315;28;19981;-75
2023/06/13 08:16:49;;;;;;;;;;;24.80;70.70;;;;;;5089812;28;19916;-74
2023/06/13 08:19:15;;;;;;;;;;;24.70;70.90;;;;;;5089581;28;20272;-75
2023/06/13 08:21:41;;;;;;;;;;;24.90;71.10;;;;;;5088671;28;19916;-72
2023/06/13 08:24:06;;;;;;;;;;;25.10;70.90;;;;;;5088818;28;19931;-74
2023/06/13 08:26:33;;;;;;;;;;;25.20;70.90;;;;;;5087754;28;20007;-75
2023/06/13 08:29:02;;;;;;;;;;;25.30;70.80;;;;;;5088515;28;20003;-75
2023/06/13 08:31:31;;;;;;;;;;;25.30;70.90;;;;;;5088588;28;20273;-76
2023/06/13 08:33:58;;;;;;;;;;;25.10;71.10;;;;;;5088370;28;20388;-76
2023/06/13 08:36:24;;;;;;;;;;;25.20;71.30;;;;;;5088397;28;20365;-75
2023/06/13 08:38:51;;;;;;;;;;;25.30;71.20;;;;;;5088303;28;19929;-75
2023/06/13 08:41:16;;;;;;;;;;;25.30;71.20;;;;;;5088028;28;20017;-75
2023/06/13 08:43:42;;;;;;;;;;;25.20;71.10;;;;;;5088184;28;19912;-75
2023/06/13 08:46:08;;;;;;;;;;;25.20;71.40;;;;;;5088207;28;19960;-76
2023/06/13 08:48:34;;;;;;;;;;;25.20;71.40;;;;;;5088528;28;19956;-75
2023/06/13 08:51:00;;;;;;;;;;;25.20;71.50;;;;;;5088313;28;19964;-76
2023/06/13 08:53:27;;;;;;;;;;;25.30;71.50;;;;;;5088743;28;19908;-76
2023/06/13 08:55:53;;;;;;;;;;;25.30;71.50;;;;;;5089546;28;20436;-76
2023/06/13 08:58:20;;;;;;;;;;;25.30;71.40;;;;;;5089732;28;19912;-76
2023/06/13 09:00:47;;;;;;;;;;;25.30;71.50;;;;;;5089632;28;19930;-76
2023/06/13 09:03:15;;;;;;;;;;;25.40;71.60;;;;;;5089291;28;20015;-76
2023/06/13 09:05:41;;;;;;;;;;;25.50;71.40;;;;;;5088348;28;20314;-77
2023/06/13 09:08:08;;;;;;;;;;;25.50;71.40;;;;;;5089530;28;20564;-76
2023/06/13 09:10:34;;;;;;;;;;;25.50;71.40;;;;;;5089674;28;19915;-76
2023/06/13 09:13:00;;;;;;;;;;;25.60;71.60;;;;;;5089224;28;20431;-76
2023/06/13 09:15:26;;;;;;;;;;;25.80;71.90;;;;;;5088939;28;19951;-69
2023/06/13 09:17:53;;;;;;;;;;;26.20;72.10;;;;;;5088684;28;19950;-69
2023/06/13 09:20:20;;;;;;;;;;;27.00;72.60;;;;;;5088861;28;19916;-70
2023/06/13 09:22:46;;;;;;;;;;;28.10;72.90;;;;;;5088794;28;20007;-70
2023/06/13 09:25:16;;;;;;;;;;;28.60;72.00;;;;;;5088613;28;19946;-70
2023/06/13 09:27:41;;;;;;;;;;;28.80;72.00;;;;;;5088231;28;19943;-70
2023/06/13 09:30:08;;;;;;;;;;;29.00;72.00;;;;;;5096140;28;20410;-70
2023/06/13 09:32:34;;;;;;;;;;;29.40;72.60;;;;;;5096103;28;20023;-70
2023/06/13 09:35:02;;;;;;;;;;;29.90;72.20;;;;;;5099408;28;19950;-70
2023/06/13 09:37:27;;;;;;;;;;;29.90;71.50;;;;;;5099941;28;19912;-69
2023/06/13 09:39:56;;;;;;;;;;;29.60;71.20;;;;;;5098775;28;20251;-69
2023/06/13 09:42:22;;;;;;;;;;;29.50;71.60;;;;;;5099329;28;19911;-69
2023/06/13 09:44:49;;;;;;;;;;;30.20;72.60;;;;;;5099081;28;20359;-69
2023/06/13 09:47:22;;;;;;;;;;;31.10;72.90;;;;;;5097892;28;19930;-69
2023/06/13 09:49:51;;;;;;;;;;;31.90;73.10;;;;;;5097135;28;19915;-69
2023/06/13 09:52:17;;;;;;;;;;;32.30;72.20;;;;;;5098021;28;19912;-70
2023/06/13 09:54:43;;;;;;;;;;;32.60;72.40;;;;;;5097128;28;20130;-69
2023/06/13 09:57:10;;;;;;;;;;;32.70;72.20;;;;;;5095727;28;20342;-70
2023/06/13 09:59:35;;;;;;;;;;;32.90;72.70;;;;;;5096203;28;19911;-70
2023/06/13 10:02:01;;;;;;;;;;;33.30;73.40;;;;;;5096788;28;19973;-70
2023/06/13 10:04:27;;;;;;;;;;;34.10;73.40;;;;;;5096170;28;19956;-70
2023/06/13 10:06:52;;;;;;;;;;;34.90;73.10;;;;;;5098660;28;19912;-70
2023/06/13 10:09:18;;;;;;;;;;;35.40;73.00;;;;;;5098326;28;20655;-71
2023/06/13 10:11:46;;;;;;;;;;;36.00;73.10;;;;;;5098047;28;19964;-70
2023/06/13 10:14:19;;;;;;;;;;;36.50;72.60;;;;;;5096850;28;19957;-70
2023/06/13 10:16:47;;;;;;;;;;;36.80;72.10;;;;;;5096752;28;19923;-71
2023/06/13 10:19:16;;;;;;;;;;;37.10;72.00;;;;;;5096770;28;19920;-72
2023/06/13 10:21:42;;;;;;;;;;;37.40;72.00;;;;;;5098324;28;19992;-72
2023/06/13 10:24:08;;;;;;;;;;;37.60;72.10;;;;;;5096254;28;20373;-71
2023/06/13 10:26:41;;;;;;;;;;;37.60;72.80;;;;;;5098040;28;19920;-71
2023/06/13 10:29:07;;;;;;;;;;;38.00;73.30;;;;;;5098738;28;19912;-71
2023/06/13 10:31:43;;;;;;;;;;;38.50;73.10;;;;;;5097310;28;19912;-71
2023/06/13 10:34:15;;;;;;;;;;;39.00;72.80;;;;;;5099102;28;19915;-70
2023/06/13 10:37:00;;;;;;;;;;;39.50;72.80;;;;;;5099508;28;19908;-74
2023/06/13 10:39:44;;;;;;;;;;;39.50;73.00;;;;;;5098348;28;19912;-74
2023/06/13 10:42:16;;;;;;;;;;;39.90;73.30;;;;;;5098233;28;19953;-70
2023/06/13 10:44:46;;;;;;;;;;;40.10;72.80;;;;;;5095775;28;20280;-69
2023/06/13 10:47:15;;;;;;;;;;;39.50;72.50;;;;;;5097953;28;19910;-69
2023/06/13 10:49:42;;;;;;;;;;;38.60;72.70;;;;;;5098301;28;19908;-69
2023/06/13 10:52:12;;;;;;;;;;;38.20;73.50;;;;;;5098225;28;20057;-71
2023/06/13 10:54:38;;;;;;;;;;;38.20;74.40;;;;;;5101267;27;19912;-69
2023/06/13 10:57:03;;;;;;;;;;;38.60;74.40;;;;;;5102176;28;19916;-71
2023/06/13 10:59:34;;;;;;;;;;;39.10;74.10;;;;;;5099862;28;20332;-73
2023/06/13 11:02:00;;;;;;;;;;;39.40;73.80;;;;;;5099736;28;20006;-73
2023/06/13 11:04:27;;;;;;;;;;;39.60;73.30;;;;;;5101917;28;19920;-72
2023/06/13 11:07:13;;;;;;;;;;;39.10;73.60;;;;;;5102027;28;19908;-70
2023/06/13 11:09:38;;;;;;;;;;;38.70;73.80;;;;;;5097588;28;19998;-73
2023/06/13 11:12:06;;;;;;;;;;;38.10;74.20;;;;;;5099031;28;20050;-75
2023/06/13 11:14:33;;;;;;;;;;;38.10;75.30;;;;;;5101497;28;19938;-70
2023/06/13 11:16:59;;;;;;;;;;;38.70;75.50;;;;;;5100695;28;19909;-71
2023/06/13 11:19:25;;;;;;;;;;;39.20;74.90;;;;;;5099543;27;19912;-71
2023/06/13 11:22:00;;;;;;;;;;;39.50;74.60;;;;;;5101426;28;19914;-71
2023/06/13 11:24:29;;;;;;;;;;;39.40;73.80;;;;;;5101384;28;19920;-70
2023/06/13 11:26:55;;;;;;;;;;;38.80;73.90;;;;;;5099849;28;19918;-70
2023/06/13 11:29:21;;;;;;;;;;;38.40;74.10;;;;;;5099912;27;20006;-70
2023/06/13 11:31:50;;;;;;;;;;;37.90;74.20;;;;;;5099643;28;19927;-70
2023/06/13 11:34:16;;;;;;;;;;;37.40;74.20;;;;;;5100017;28;19916;-69
2023/06/13 11:36:43;;;;;;;;;;;36.80;73.50;;;;;;5091469;28;19987;-70
2023/06/13 11:39:09;;;;;;;;;;;35.90;73.40;;;;;;5089076;28;20371;-70
2023/06/13 11:41:36;;;;;;;;;;;34.90;73.60;;;;;;5089813;28;19965;-69
2023/06/13 11:44:02;;;;;;;;;;;34.00;74.20;;;;;;5090234;28;20507;-70
2023/06/13 11:46:27;;;;;;;;;;;33.60;74.50;;;;;;5089172;28;19970;-70
2023/06/13 11:48:54;;;;;;;;;;;33.50;74.60;;;;;;5090234;28;19943;-70
2023/06/13 11:51:20;;;;;;;;;;;33.90;75.40;;;;;;5090435;28;19927;-70
2023/06/13 11:53:56;;;;;;;;;;;34.50;75.10;;;;;;5090214;28;19912;-70
2023/06/13 11:56:23;;;;;;;;;;;34.80;75.10;;;;;;5090346;28;20274;-70
2023/06/13 11:58:50;;;;;;;;;;;35.20;74.70;;;;;;5090277;28;20288;-70
2023/06/13 12:01:16;;;;;;;;;;;35.30;75.10;;;;;;5089859;28;19927;-71
2023/06/13 12:03:43;;;;;;;;;;;35.60;75.10;;;;;;5089868;28;19920;-70
2023/06/13 12:06:08;;;;;;;;;;;35.90;75.20;;;;;;5090133;28;19908;-70
2023/06/13 12:08:34;;;;;;;;;;;36.20;75.20;;;;;;5090363;28;19912;-70
2023/06/13 12:11:06;;;;;;;;;;;36.50;75.00;;;;;;5090053;28;19924;-71
2023/06/13 12:13:35;;;;;;;;;;;36.80;75.00;;;;;;5088807;28;20295;-70
2023/06/13 12:16:01;;;;;;;;;;;36.90;74.70;;;;;;5089948;28;19908;-70
2023/06/13 12:18:29;;;;;;;;;;;37.00;74.70;;;;;;5090256;28;19912;-71
2023/06/13 12:20:58;;;;;;;;;;;37.20;74.70;;;;;;5092716;28;19916;-70
2023/06/13 12:23:24;;;;;;;;;;;37.30;74.20;;;;;;5098255;28;19916;-70
2023/06/13 12:25:50;;;;;;;;;;;37.10;74.50;;;;;;5089681;28;19916;-70
2023/06/13 12:28:17;;;;;;;;;;;37.00;75.00;;;;;;5089663;28;19923;-68
2023/06/13 12:30:43;;;;;;;;;;;37.20;75.00;;;;;;5089471;28;19914;-70
2023/06/13 12:33:15;;;;;;;;;;;37.10;74.60;;;;;;5088184;28;20011;-70
2023/06/13 12:35:51;;;;;;;;;;;36.80;74.40;;;;;;5089119;28;19908;-70
2023/06/13 12:38:17;;;;;;;;;;;36.40;74.80;;;;;;5089496;28;20344;-69
2023/06/13 12:40:45;;;;;;;;;;;36.00;75.10;;;;;;5088673;28;20012;-70
2023/06/13 12:43:11;;;;;;;;;;;35.80;75.50;;;;;;5089255;28;19920;-69
2023/06/13 12:45:37;;;;;;;;;;;35.80;75.50;;;;;;5089125;28;19954;-69
2023/06/13 12:48:02;;;;;;;;;;;36.10;75.80;;;;;;5087778;28;19916;-69
2023/06/13 12:50:30;;;;;;;;;;;36.40;75.60;;;;;;5089271;28;20299;-69
2023/06/13 12:53:05;;;;;;;;;;;36.30;75.00;;;;;;5089016;28;19916;-70
2023/06/13 12:55:33;;;;;;;;;;;36.10;75.10;;;;;;5089093;28;19960;-71
2023/06/13 12:58:00;;;;;;;;;;;36.00;75.40;;;;;;5088942;28;19912;-69
2023/06/13 13:00:26;;;;;;;;;;;35.90;75.30;;;;;;5088890;28;19943;-70
2023/06/13 13:02:52;;;;;;;;;;;35.60;75.40;;;;;;5088738;28;20546;-70
2023/06/13 13:05:18;;;;;;;;;;;35.50;75.90;;;;;;5087781;28;20345;-71
2023/06/13 13:07:43;;;;;;;;;;;35.70;76.00;;;;;;5089277;28;20270;-69
2023/06/13 13:10:09;;;;;;;;;;;35.60;75.00;;;;;;5093364;28;19916;-70
2023/06/13 13:12:34;;;;;;;;;;;35.00;74.80;;;;;;5108127;28;20627;-70
2023/06/13 13:15:00;;;;;;;;;;;34.40;74.60;;;;;;5107823;28;19922;-70
2023/06/13 13:17:25;;;;;;;;;;;33.70;74.70;;;;;;5097040;28;19912;-70
2023/06/13 13:19:53;;;;;;;;;;;33.20;74.80;;;;;;5097443;28;20006;-69
2023/06/13 13:22:19;;;;;;;;;;;32.90;74.70;;;;;;5099442;28;19931;-70
2023/06/13 13:24:45;;;;;;;;;;;32.50;74.40;;;;;;5096609;28;19911;-70
2023/06/13 13:27:11;;;;;;;;;;;32.20;74.20;;;;;;5099153;28;19984;-70
2023/06/13 13:29:36;;;;;;;;;;;31.90;74.30;;;;;;5097001;28;19927;-70
2023/06/13 13:32:02;;;;;;;;;;;31.70;74.30;;;;;;5098376;28;20464;-70
2023/06/13 13:34:28;;;;;;;;;;;31.50;74.10;;;;;;5098551;28;19916;-70
2023/06/13 13:36:53;;;;;;;;;;;31.30;74.10;;;;;;5097116;28;19923;-70
2023/06/13 13:39:19;;;;;;;;;;;31.30;73.90;;;;;;5099426;28;19938;-68
2023/06/13 13:41:45;;;;;;;;;;;31.30;73.80;;;;;;5099305;28;19912;-69
2023/06/13 13:44:11;;;;;;;;;;;31.30;73.50;;;;;;5096966;27;19926;-72
2023/06/13 13:46:36;;;;;;;;;;;31.40;73.50;;;;;;5097180;28;20011;-75
2023/06/13 13:49:02;;;;;;;;;;;31.40;73.00;;;;;;5096692;28;19915;-76
2023/06/13 13:51:29;;;;;;;;;;;31.30;73.00;;;;;;5094315;28;20355;-76
2023/06/13 13:53:55;;;;;;;;;;;31.10;72.80;;;;;;5088510;28;20002;-75
2023/06/13 13:56:21;;;;;;;;;;;31.00;72.70;;;;;;5087660;28;20338;-75
2023/06/13 13:58:46;;;;;;;;;;;30.80;72.90;;;;;;5107371;28;19919;-78
2023/06/13 14:01:12;;;;;;;;;;;30.70;73.20;;;;;;5108212;28;20288;-78
2023/06/13 14:03:40;;;;;;;;;;;30.90;73.10;;;;;;5108014;28;19926;-76
2023/06/13 14:06:06;;;;;;;;;;;30.90;72.50;;;;;;5108223;28;19912;-77
2023/06/13 14:08:31;;;;;;;;;;;31.00;72.10;;;;;;5107335;28;19916;-77
2023/06/13 14:10:58;;;;;;;;;;;30.90;72.20;;;;;;5108502;28;20382;-76
2023/06/13 14:13:23;;;;;;;;;;;30.90;72.30;;;;;;5109357;28;19908;-78